Niagara College

*Note: All times are displayed in the local standard time of the station location.
**Rain - Equipment is designed to accurately record liquid precipitation; under conditions when precipitation is not in liquid form, the data displayed may not properly reflect rainfall values.

Date Max Temp
(°C)
Min Temp
(°C)
Avg Temp
(°C)
Rain (mm) Avg RH (%)
Sun, Dec 10, 2017 -1.3 -2.8 -2.0 0.0 73.2
Sat, Dec 09, 2017 1.0 -2.9 -0.7 0.0 64.1
Fri, Dec 08, 2017 0.2 -4.4 -1.8 0.0 63.8
Thu, Dec 07, 2017 1.4 -3.2 -0.7 0.0 62.3
Wed, Dec 06, 2017 4.0 -0.8 1.5 0.0 55.3
Tue, Dec 05, 2017 11.4 0.6 7.6 8.0 71.9
Mon, Dec 04, 2017 11.1 -1.7 6.9 0.2 69.1
DateTime Avg Temp (°C) Rain (mm) RH (%)
Mon, Dec 11, 2017 02:00 -2.4 0.0 93.0
Mon, Dec 11, 2017 01:00 -1.9 0.0 75.5
Mon, Dec 11, 2017 00:00 -2.3 0.0 76.0
Sun, Dec 10, 2017 23:00 -2.3 0.0 74.3
Sun, Dec 10, 2017 22:00 -2.2 0.0 73.0
Sun, Dec 10, 2017 21:00 -2.0 0.0 70.0
Sun, Dec 10, 2017 20:00 -1.9 0.0 67.8
Sun, Dec 10, 2017 19:00 -1.6 0.0 63.5
Sun, Dec 10, 2017 18:00 -1.5 0.0 61.3
Sun, Dec 10, 2017 17:00 -1.6 0.0 66.8
Sun, Dec 10, 2017 16:00 -1.5 0.0 69.3
Sun, Dec 10, 2017 15:00 -1.4 0.0 69.5
Sun, Dec 10, 2017 14:00 -1.4 0.0 68.5
Sun, Dec 10, 2017 13:00 -1.5 0.0 67.0
Sun, Dec 10, 2017 12:00 -1.6 0.0 63.8
Sun, Dec 10, 2017 11:00 -2.0 0.0 64.0
Sun, Dec 10, 2017 10:00 -2.4 0.0 66.3
Sun, Dec 10, 2017 09:00 -2.7 0.0 66.5
Sun, Dec 10, 2017 08:00 -2.6 0.0 70.8
Sun, Dec 10, 2017 07:00 -2.5 0.0 77.0
Sun, Dec 10, 2017 06:00 -2.2 0.0 81.8
Sun, Dec 10, 2017 05:00 -2.2 0.0 88.3
Sun, Dec 10, 2017 04:00 -2.3 0.0 88.8
Sun, Dec 10, 2017 03:00 -2.2 0.0 87.8
Sun, Dec 10, 2017 02:00 -2.3 0.0 88.0
Sun, Dec 10, 2017 01:00 -2.2 0.0 87.8
Sun, Dec 10, 2017 00:00 -2.8 0.0 90.0
Sat, Dec 09, 2017 23:00 -2.8 0.0 87.3
Sat, Dec 09, 2017 22:00 -2.4 0.0 83.3
Sat, Dec 09, 2017 21:00 -1.4 0.0 74.5
Sat, Dec 09, 2017 20:00 -0.4 0.0 63.8
Sat, Dec 09, 2017 19:00 -0.5 0.0 61.3
Sat, Dec 09, 2017 18:00 -0.7 0.0 62.8
Sat, Dec 09, 2017 17:00 -0.1 0.0 57.0
Sat, Dec 09, 2017 16:00 0.5 0.0 53.3
Sat, Dec 09, 2017 15:00 0.6 0.0 52.3
Sat, Dec 09, 2017 14:00 0.8 0.0 50.3
Sat, Dec 09, 2017 13:00 0.6 0.0 54.5
Sat, Dec 09, 2017 12:00 0.5 0.0 53.0
Sat, Dec 09, 2017 11:00 0.1 0.0 57.8
Sat, Dec 09, 2017 10:00 -1.0 0.0 63.3
Sat, Dec 09, 2017 09:00 -2.6 0.0 70.0
Sat, Dec 09, 2017 08:00 -1.8 0.0 71.5
Sat, Dec 09, 2017 07:00 -0.6 0.0 72.3
Sat, Dec 09, 2017 06:00 -0.5 0.0 71.8
Sat, Dec 09, 2017 05:00 -0.5 0.0 64.3
Sat, Dec 09, 2017 04:00 -0.7 0.0 56.5
Sat, Dec 09, 2017 03:00 -0.7 0.0 55.0


asterix Register now to access more data! asterix